sensor_id;sensor_type;location;lat;lon;timestamp;P1;durP1;ratioP1;P2;durP2;ratioP2
77722;SDS011;67811;42.656;23.394;2023-11-19T00:02:50;2.60;;;1.63;;
77722;SDS011;67811;42.656;23.394;2023-11-19T00:06:56;8.30;;;2.70;;
77722;SDS011;67811;42.656;23.394;2023-11-19T00:11:01;5.23;;;2.30;;
77722;SDS011;67811;42.656;23.394;2023-11-19T00:15:06;3.17;;;2.30;;
77722;SDS011;67811;42.656;23.394;2023-11-19T00:19:12;4.40;;;3.00;;
77722;SDS011;67811;42.656;23.394;2023-11-19T00:23:17;4.03;;;2.77;;
77722;SDS011;67811;42.656;23.394;2023-11-19T00:27:23;4.57;;;2.57;;
77722;SDS011;67811;42.656;23.394;2023-11-19T00:31:28;3.83;;;2.23;;
77722;SDS011;67811;42.656;23.394;2023-11-19T00:35:33;3.07;;;1.63;;
77722;SDS011;67811;42.656;23.394;2023-11-19T00:39:39;4.67;;;3.10;;
77722;SDS011;67811;42.656;23.394;2023-11-19T00:43:44;4.77;;;2.23;;
77722;SDS011;67811;42.656;23.394;2023-11-19T00:47:49;3.83;;;2.50;;
77722;SDS011;67811;42.656;23.394;2023-11-19T00:51:55;4.47;;;2.73;;
77722;SDS011;67811;42.656;23.394;2023-11-19T00:56:00;4.27;;;2.40;;
77722;SDS011;67811;42.656;23.394;2023-11-19T01:00:05;3.80;;;2.33;;
77722;SDS011;67811;42.656;23.394;2023-11-19T01:04:11;3.92;;;2.30;;
77722;SDS011;67811;42.656;23.394;2023-11-19T01:08:17;5.00;;;2.07;;
77722;SDS011;67811;42.656;23.394;2023-11-19T01:12:22;4.27;;;2.43;;
77722;SDS011;67811;42.656;23.394;2023-11-19T01:16:27;4.90;;;2.80;;
77722;SDS011;67811;42.656;23.394;2023-11-19T01:20:32;4.27;;;2.60;;
77722;SDS011;67811;42.656;23.394;2023-11-19T01:24:38;5.17;;;3.50;;
77722;SDS011;67811;42.656;23.394;2023-11-19T01:28:43;4.07;;;2.60;;
77722;SDS011;67811;42.656;23.394;2023-11-19T01:32:48;3.67;;;1.90;;
77722;SDS011;67811;42.656;23.394;2023-11-19T01:36:54;3.80;;;2.60;;
77722;SDS011;67811;42.656;23.394;2023-11-19T01:40:59;3.73;;;2.43;;
77722;SDS011;67811;42.656;23.394;2023-11-19T01:45:05;4.32;;;2.90;;
77722;SDS011;67811;42.656;23.394;2023-11-19T01:49:10;3.95;;;2.78;;
77722;SDS011;67811;42.656;23.394;2023-11-19T01:53:17;4.30;;;2.60;;
77722;SDS011;67811;42.656;23.394;2023-11-19T01:57:23;4.28;;;2.97;;
77722;SDS011;67811;42.656;23.394;2023-11-19T02:01:29;4.38;;;2.53;;
77722;SDS011;67811;42.656;23.394;2023-11-19T02:05:34;2.85;;;1.75;;
77722;SDS011;67811;42.656;23.394;2023-11-19T02:09:42;4.93;;;2.88;;
77722;SDS011;67811;42.656;23.394;2023-11-19T02:13:47;3.80;;;2.38;;
77722;SDS011;67811;42.656;23.394;2023-11-19T02:17:53;6.67;;;2.30;;
77722;SDS011;67811;42.656;23.394;2023-11-19T02:21:58;3.17;;;2.13;;
77722;SDS011;67811;42.656;23.394;2023-11-19T02:26:14;3.43;;;1.63;;
77722;SDS011;67811;42.656;23.394;2023-11-19T02:30:25;2.90;;;1.60;;
77722;SDS011;67811;42.656;23.394;2023-11-19T02:34:31;3.58;;;2.42;;
77722;SDS011;67811;42.656;23.394;2023-11-19T02:38:36;3.93;;;2.20;;
77722;SDS011;67811;42.656;23.394;2023-11-19T02:42:42;4.15;;;2.17;;
77722;SDS011;67811;42.656;23.394;2023-11-19T02:46:48;3.63;;;2.45;;
77722;SDS011;67811;42.656;23.394;2023-11-19T02:50:53;3.03;;;1.87;;
77722;SDS011;67811;42.656;23.394;2023-11-19T02:54:59;3.67;;;2.00;;
77722;SDS011;67811;42.656;23.394;2023-11-19T02:59:04;3.80;;;2.27;;
77722;SDS011;67811;42.656;23.394;2023-11-19T03:03:09;4.27;;;2.37;;
77722;SDS011;67811;42.656;23.394;2023-11-19T03:07:14;4.60;;;2.50;;
77722;SDS011;67811;42.656;23.394;2023-11-19T03:11:20;4.00;;;2.37;;
77722;SDS011;67811;42.656;23.394;2023-11-19T03:15:25;4.17;;;2.87;;
77722;SDS011;67811;42.656;23.394;2023-11-19T03:19:30;2.40;;;1.47;;
77722;SDS011;67811;42.656;23.394;2023-11-19T03:23:36;4.27;;;2.17;;
77722;SDS011;67811;42.656;23.394;2023-11-19T03:27:41;3.60;;;2.08;;
77722;SDS011;67811;42.656;23.394;2023-11-19T03:31:47;3.93;;;2.10;;
77722;SDS011;67811;42.656;23.394;2023-11-19T03:35:52;4.00;;;2.33;;
77722;SDS011;67811;42.656;23.394;2023-11-19T03:39:57;4.07;;;2.43;;
77722;SDS011;67811;42.656;23.394;2023-11-19T03:44:03;3.00;;;1.70;;
77722;SDS011;67811;42.656;23.394;2023-11-19T03:48:08;3.37;;;2.00;;
77722;SDS011;67811;42.656;23.394;2023-11-19T03:52:14;4.77;;;2.23;;
77722;SDS011;67811;42.656;23.394;2023-11-19T03:56:19;5.50;;;2.90;;
77722;SDS011;67811;42.656;23.394;2023-11-19T04:00:24;4.60;;;2.60;;
77722;SDS011;67811;42.656;23.394;2023-11-19T04:04:30;5.00;;;2.80;;
77722;SDS011;67811;42.656;23.394;2023-11-19T04:08:35;3.40;;;1.97;;
77722;SDS011;67811;42.656;23.394;2023-11-19T04:12:40;4.50;;;2.80;;
77722;SDS011;67811;42.656;23.394;2023-11-19T04:16:45;3.30;;;1.97;;
77722;SDS011;67811;42.656;23.394;2023-11-19T04:20:51;4.33;;;2.47;;
77722;SDS011;67811;42.656;23.394;2023-11-19T04:24:56;2.70;;;1.53;;
77722;SDS011;67811;42.656;23.394;2023-11-19T04:29:01;4.47;;;2.77;;
77722;SDS011;67811;42.656;23.394;2023-11-19T04:33:07;3.50;;;2.07;;
77722;SDS011;67811;42.656;23.394;2023-11-19T04:37:12;3.57;;;1.90;;
77722;SDS011;67811;42.656;23.394;2023-11-19T04:41:17;3.43;;;2.07;;
77722;SDS011;67811;42.656;23.394;2023-11-19T04:45:23;3.90;;;2.50;;
77722;SDS011;67811;42.656;23.394;2023-11-19T04:49:28;3.73;;;2.43;;
77722;SDS011;67811;42.656;23.394;2023-11-19T04:53:33;4.87;;;2.50;;
77722;SDS011;67811;42.656;23.394;2023-11-19T04:57:38;3.13;;;1.53;;
77722;SDS011;67811;42.656;23.394;2023-11-19T05:01:46;4.40;;;2.80;;
77722;SDS011;67811;42.656;23.394;2023-11-19T05:05:52;4.63;;;2.53;;
77722;SDS011;67811;42.656;23.394;2023-11-19T05:09:57;4.73;;;2.83;;
77722;SDS011;67811;42.656;23.394;2023-11-19T05:14:02;2.87;;;1.57;;
77722;SDS011;67811;42.656;23.394;2023-11-19T05:18:08;4.63;;;2.47;;
77722;SDS011;67811;42.656;23.394;2023-11-19T05:22:13;4.27;;;2.43;;
77722;SDS011;67811;42.656;23.394;2023-11-19T05:26:19;3.83;;;2.87;;
77722;SDS011;67811;42.656;23.394;2023-11-19T05:30:25;3.90;;;2.08;;
77722;SDS011;67811;42.656;23.394;2023-11-19T05:34:30;4.23;;;2.63;;
77722;SDS011;67811;42.656;23.394;2023-11-19T05:38:36;5.30;;;2.93;;
77722;SDS011;67811;42.656;23.394;2023-11-19T05:42:41;3.70;;;2.00;;
77722;SDS011;67811;42.656;23.394;2023-11-19T05:46:46;4.33;;;2.03;;
77722;SDS011;67811;42.656;23.394;2023-11-19T05:50:52;5.03;;;2.40;;
77722;SDS011;67811;42.656;23.394;2023-11-19T05:54:57;3.47;;;2.10;;
77722;SDS011;67811;42.656;23.394;2023-11-19T05:59:02;5.43;;;2.70;;
77722;SDS011;67811;42.656;23.394;2023-11-19T06:03:08;4.43;;;1.83;;
77722;SDS011;67811;42.656;23.394;2023-11-19T06:07:13;4.40;;;2.23;;
77722;SDS011;67811;42.656;23.394;2023-11-19T06:11:19;3.72;;;2.28;;
77722;SDS011;67811;42.656;23.394;2023-11-19T06:15:24;3.43;;;2.03;;
77722;SDS011;67811;42.656;23.394;2023-11-19T06:19:32;6.30;;;2.58;;
77722;SDS011;67811;42.656;23.394;2023-11-19T06:23:37;4.07;;;2.40;;
77722;SDS011;67811;42.656;23.394;2023-11-19T06:27:42;5.03;;;3.10;;
77722;SDS011;67811;42.656;23.394;2023-11-19T06:31:48;5.47;;;3.13;;
77722;SDS011;67811;42.656;23.394;2023-11-19T06:35:53;6.70;;;3.17;;
77722;SDS011;67811;42.656;23.394;2023-11-19T06:39:58;5.63;;;2.57;;
77722;SDS011;67811;42.656;23.394;2023-11-19T06:44:04;5.05;;;3.15;;
77722;SDS011;67811;42.656;23.394;2023-11-19T06:48:09;4.35;;;2.38;;
77722;SDS011;67811;42.656;23.394;2023-11-19T06:52:16;4.53;;;2.27;;
77722;SDS011;67811;42.656;23.394;2023-11-19T06:56:22;5.55;;;3.30;;
77722;SDS011;67811;42.656;23.394;2023-11-19T07:00:28;4.72;;;2.88;;
77722;SDS011;67811;42.656;23.394;2023-11-19T07:04:34;5.38;;;2.72;;
77722;SDS011;67811;42.656;23.394;2023-11-19T07:08:42;5.10;;;2.90;;
77722;SDS011;67811;42.656;23.394;2023-11-19T07:12:48;4.68;;;2.78;;
77722;SDS011;67811;42.656;23.394;2023-11-19T07:16:53;4.83;;;2.60;;
77722;SDS011;67811;42.656;23.394;2023-11-19T07:20:58;4.47;;;3.07;;
77722;SDS011;67811;42.656;23.394;2023-11-19T07:25:04;6.33;;;3.03;;
77722;SDS011;67811;42.656;23.394;2023-11-19T07:29:09;5.20;;;3.10;;
77722;SDS011;67811;42.656;23.394;2023-11-19T07:33:15;6.43;;;3.37;;
77722;SDS011;67811;42.656;23.394;2023-11-19T07:37:20;5.20;;;3.20;;
77722;SDS011;67811;42.656;23.394;2023-11-19T07:41:25;5.37;;;3.50;;
77722;SDS011;67811;42.656;23.394;2023-11-19T07:45:31;6.10;;;3.10;;
77722;SDS011;67811;42.656;23.394;2023-11-19T07:49:36;4.07;;;2.47;;
77722;SDS011;67811;42.656;23.394;2023-11-19T07:53:41;6.70;;;3.33;;
77722;SDS011;67811;42.656;23.394;2023-11-19T07:57:47;6.05;;;3.75;;
77722;SDS011;67811;42.656;23.394;2023-11-19T08:01:52;5.43;;;3.33;;
77722;SDS011;67811;42.656;23.394;2023-11-19T08:05:57;5.63;;;3.23;;
77722;SDS011;67811;42.656;23.394;2023-11-19T08:10:04;5.37;;;2.57;;
77722;SDS011;67811;42.656;23.394;2023-11-19T08:14:09;5.85;;;3.03;;
77722;SDS011;67811;42.656;23.394;2023-11-19T08:18:15;6.47;;;4.33;;
77722;SDS011;67811;42.656;23.394;2023-11-19T08:22:20;5.33;;;2.90;;
77722;SDS011;67811;42.656;23.394;2023-11-19T08:26:25;3.13;;;1.70;;
77722;SDS011;67811;42.656;23.394;2023-11-19T08:30:31;5.40;;;2.80;;
77722;SDS011;67811;42.656;23.394;2023-11-19T08:34:36;6.10;;;3.13;;
77722;SDS011;67811;42.656;23.394;2023-11-19T08:38:41;5.43;;;2.60;;
77722;SDS011;67811;42.656;23.394;2023-11-19T08:42:47;4.87;;;2.13;;
77722;SDS011;67811;42.656;23.394;2023-11-19T08:46:52;4.47;;;3.13;;
77722;SDS011;67811;42.656;23.394;2023-11-19T08:50:57;4.67;;;2.60;;
77722;SDS011;67811;42.656;23.394;2023-11-19T08:55:03;4.67;;;2.73;;
77722;SDS011;67811;42.656;23.394;2023-11-19T08:59:09;4.53;;;2.60;;
77722;SDS011;67811;42.656;23.394;2023-11-19T09:03:14;3.50;;;1.90;;
77722;SDS011;67811;42.656;23.394;2023-11-19T09:07:19;5.03;;;2.23;;
77722;SDS011;67811;42.656;23.394;2023-11-19T09:11:25;5.33;;;2.53;;
77722;SDS011;67811;42.656;23.394;2023-11-19T09:15:30;3.80;;;2.37;;
77722;SDS011;67811;42.656;23.394;2023-11-19T09:19:35;4.90;;;2.07;;
77722;SDS011;67811;42.656;23.394;2023-11-19T09:23:41;5.60;;;2.93;;
77722;SDS011;67811;42.656;23.394;2023-11-19T09:27:46;4.67;;;3.10;;
77722;SDS011;67811;42.656;23.394;2023-11-19T09:31:51;5.07;;;2.90;;
77722;SDS011;67811;42.656;23.394;2023-11-19T09:35:57;5.17;;;2.67;;
77722;SDS011;67811;42.656;23.394;2023-11-19T09:40:02;3.50;;;2.17;;
77722;SDS011;67811;42.656;23.394;2023-11-19T09:44:08;4.95;;;3.13;;
77722;SDS011;67811;42.656;23.394;2023-11-19T09:48:16;4.10;;;2.42;;
77722;SDS011;67811;42.656;23.394;2023-11-19T09:52:22;4.72;;;2.80;;
77722;SDS011;67811;42.656;23.394;2023-11-19T09:56:28;6.60;;;3.43;;
77722;SDS011;67811;42.656;23.394;2023-11-19T10:00:34;4.70;;;2.37;;
77722;SDS011;67811;42.656;23.394;2023-11-19T10:04:39;3.77;;;2.20;;
77722;SDS011;67811;42.656;23.394;2023-11-19T10:08:47;4.20;;;2.20;;
77722;SDS011;67811;42.656;23.394;2023-11-19T10:12:53;4.93;;;1.70;;
77722;SDS011;67811;42.656;23.394;2023-11-19T10:17:01;5.13;;;2.70;;
77722;SDS011;67811;42.656;23.394;2023-11-19T10:21:06;3.75;;;2.20;;
77722;SDS011;67811;42.656;23.394;2023-11-19T10:25:22;5.00;;;2.77;;
77722;SDS011;67811;42.656;23.394;2023-11-19T10:29:29;3.78;;;2.10;;
77722;SDS011;67811;42.656;23.394;2023-11-19T10:33:34;4.30;;;1.85;;
77722;SDS011;67811;42.656;23.394;2023-11-19T10:37:40;4.73;;;2.50;;
77722;SDS011;67811;42.656;23.394;2023-11-19T10:41:45;3.40;;;1.87;;
77722;SDS011;67811;42.656;23.394;2023-11-19T10:45:51;4.23;;;2.13;;
77722;SDS011;67811;42.656;23.394;2023-11-19T10:49:56;4.00;;;2.38;;
77722;SDS011;67811;42.656;23.394;2023-11-19T10:54:02;3.67;;;1.97;;
77722;SDS011;67811;42.656;23.394;2023-11-19T10:58:09;3.53;;;1.65;;
77722;SDS011;67811;42.656;23.394;2023-11-19T11:02:16;6.57;;;2.42;;
77722;SDS011;67811;42.656;23.394;2023-11-19T11:06:26;5.68;;;2.53;;
77722;SDS011;67811;42.656;23.394;2023-11-19T11:10:32;4.20;;;1.98;;
77722;SDS011;67811;42.656;23.394;2023-11-19T11:14:44;4.28;;;2.15;;
77722;SDS011;67811;42.656;23.394;2023-11-19T11:18:51;4.20;;;2.63;;
77722;SDS011;67811;42.656;23.394;2023-11-19T11:27:14;2.95;;;1.60;;
77722;SDS011;67811;42.656;23.394;2023-11-19T11:40:16;3.55;;;1.95;;
77722;SDS011;67811;42.656;23.394;2023-11-19T11:49:06;3.70;;;2.05;;
77722;SDS011;67811;42.656;23.394;2023-11-19T11:53:15;3.50;;;1.80;;
77722;SDS011;67811;42.656;23.394;2023-11-19T11:57:21;3.90;;;2.13;;
77722;SDS011;67811;42.656;23.394;2023-11-19T12:01:27;3.30;;;1.90;;
77722;SDS011;67811;42.656;23.394;2023-11-19T12:05:32;4.17;;;2.33;;
77722;SDS011;67811;42.656;23.394;2023-11-19T12:09:42;4.75;;;2.40;;
77722;SDS011;67811;42.656;23.394;2023-11-19T12:13:55;4.25;;;2.60;;
77722;SDS011;67811;42.656;23.394;2023-11-19T12:18:01;3.70;;;2.03;;
77722;SDS011;67811;42.656;23.394;2023-11-19T12:22:10;5.30;;;2.47;;
77722;SDS011;67811;42.656;23.394;2023-11-19T12:26:34;3.38;;;2.00;;
77722;SDS011;67811;42.656;23.394;2023-11-19T12:30:41;4.63;;;2.30;;
77722;SDS011;67811;42.656;23.394;2023-11-19T12:34:46;4.13;;;2.20;;
77722;SDS011;67811;42.656;23.394;2023-11-19T12:38:51;4.90;;;2.57;;
77722;SDS011;67811;42.656;23.394;2023-11-19T12:42:57;4.37;;;2.47;;
77722;SDS011;67811;42.656;23.394;2023-11-19T12:47:03;4.68;;;2.58;;
77722;SDS011;67811;42.656;23.394;2023-11-19T12:51:09;7.20;;;2.60;;
77722;SDS011;67811;42.656;23.394;2023-11-19T12:55:27;5.53;;;2.63;;
77722;SDS011;67811;42.656;23.394;2023-11-19T12:59:33;5.68;;;2.33;;
77722;SDS011;67811;42.656;23.394;2023-11-19T13:03:39;4.37;;;2.40;;
77722;SDS011;67811;42.656;23.394;2023-11-19T13:07:44;7.13;;;2.70;;
77722;SDS011;67811;42.656;23.394;2023-11-19T13:11:49;4.50;;;2.37;;
77722;SDS011;67811;42.656;23.394;2023-11-19T13:16:04;3.85;;;2.17;;
77722;SDS011;67811;42.656;23.394;2023-11-19T13:20:10;5.38;;;2.28;;
77722;SDS011;67811;42.656;23.394;2023-11-19T13:24:15;4.63;;;2.27;;
77722;SDS011;67811;42.656;23.394;2023-11-19T13:28:20;5.40;;;2.53;;
77722;SDS011;67811;42.656;23.394;2023-11-19T13:32:26;4.50;;;2.50;;
77722;SDS011;67811;42.656;23.394;2023-11-19T13:36:31;4.27;;;2.53;;
77722;SDS011;67811;42.656;23.394;2023-11-19T13:40:36;4.47;;;2.17;;
77722;SDS011;67811;42.656;23.394;2023-11-19T13:44:41;5.17;;;2.43;;
77722;SDS011;67811;42.656;23.394;2023-11-19T13:48:47;4.83;;;2.70;;
77722;SDS011;67811;42.656;23.394;2023-11-19T13:52:52;5.23;;;2.30;;
77722;SDS011;67811;42.656;23.394;2023-11-19T13:56:57;5.53;;;3.30;;
77722;SDS011;67811;42.656;23.394;2023-11-19T14:01:03;5.90;;;3.23;;
77722;SDS011;67811;42.656;23.394;2023-11-19T14:05:08;4.90;;;2.03;;
77722;SDS011;67811;42.656;23.394;2023-11-19T14:09:14;4.75;;;2.83;;
77722;SDS011;67811;42.656;23.394;2023-11-19T14:13:19;5.03;;;2.70;;
77722;SDS011;67811;42.656;23.394;2023-11-19T14:17:25;5.97;;;3.03;;
77722;SDS011;67811;42.656;23.394;2023-11-19T14:21:30;5.40;;;2.60;;
77722;SDS011;67811;42.656;23.394;2023-11-19T14:25:36;5.10;;;2.77;;
77722;SDS011;67811;42.656;23.394;2023-11-19T14:29:41;6.13;;;3.27;;
77722;SDS011;67811;42.656;23.394;2023-11-19T14:33:46;7.23;;;3.47;;
77722;SDS011;67811;42.656;23.394;2023-11-19T14:37:51;6.13;;;2.80;;
77722;SDS011;67811;42.656;23.394;2023-11-19T14:41:57;5.47;;;3.20;;
77722;SDS011;67811;42.656;23.394;2023-11-19T14:46:03;4.45;;;2.42;;
77722;SDS011;67811;42.656;23.394;2023-11-19T14:50:08;5.90;;;3.10;;
77722;SDS011;67811;42.656;23.394;2023-11-19T14:54:13;6.57;;;2.70;;
77722;SDS011;67811;42.656;23.394;2023-11-19T14:58:19;4.50;;;2.60;;
77722;SDS011;67811;42.656;23.394;2023-11-19T15:02:24;5.93;;;3.23;;
77722;SDS011;67811;42.656;23.394;2023-11-19T15:06:29;5.27;;;3.10;;
77722;SDS011;67811;42.656;23.394;2023-11-19T15:10:35;5.63;;;2.93;;
77722;SDS011;67811;42.656;23.394;2023-11-19T15:14:40;7.13;;;3.07;;
77722;SDS011;67811;42.656;23.394;2023-11-19T15:18:45;5.90;;;2.90;;
77722;SDS011;67811;42.656;23.394;2023-11-19T15:22:50;5.37;;;2.80;;
77722;SDS011;67811;42.656;23.394;2023-11-19T15:26:56;6.17;;;2.70;;
77722;SDS011;67811;42.656;23.394;2023-11-19T15:31:01;6.73;;;3.10;;
77722;SDS011;67811;42.656;23.394;2023-11-19T15:35:06;5.33;;;2.80;;
77722;SDS011;67811;42.656;23.394;2023-11-19T15:39:12;5.90;;;2.55;;
77722;SDS011;67811;42.656;23.394;2023-11-19T15:43:17;6.50;;;2.97;;
77722;SDS011;67811;42.656;23.394;2023-11-19T15:47:23;5.60;;;2.80;;
77722;SDS011;67811;42.656;23.394;2023-11-19T15:51:28;5.10;;;2.63;;
77722;SDS011;67811;42.656;23.394;2023-11-19T15:55:33;6.17;;;3.27;;
77722;SDS011;67811;42.656;23.394;2023-11-19T15:59:38;6.10;;;3.10;;
77722;SDS011;67811;42.656;23.394;2023-11-19T16:03:44;5.57;;;2.67;;
77722;SDS011;67811;42.656;23.394;2023-11-19T16:07:49;5.40;;;2.93;;
77722;SDS011;67811;42.656;23.394;2023-11-19T16:11:54;6.17;;;3.10;;
77722;SDS011;67811;42.656;23.394;2023-11-19T16:16:00;5.83;;;3.37;;
77722;SDS011;67811;42.656;23.394;2023-11-19T16:20:05;5.80;;;2.80;;
77722;SDS011;67811;42.656;23.394;2023-11-19T16:24:11;6.88;;;3.25;;
77722;SDS011;67811;42.656;23.394;2023-11-19T16:28:16;6.80;;;3.20;;
77722;SDS011;67811;42.656;23.394;2023-11-19T16:32:21;7.70;;;3.53;;
77722;SDS011;67811;42.656;23.394;2023-11-19T16:36:27;4.27;;;3.20;;
77722;SDS011;67811;42.656;23.394;2023-11-19T16:40:32;9.83;;;4.80;;
77722;SDS011;67811;42.656;23.394;2023-11-19T16:44:37;9.23;;;5.27;;
77722;SDS011;67811;42.656;23.394;2023-11-19T16:48:46;11.87;;;4.90;;
77722;SDS011;67811;42.656;23.394;2023-11-19T16:52:52;9.48;;;4.70;;
77722;SDS011;67811;42.656;23.394;2023-11-19T16:56:57;7.90;;;4.23;;
77722;SDS011;67811;42.656;23.394;2023-11-19T17:01:03;12.13;;;5.90;;
77722;SDS011;67811;42.656;23.394;2023-11-19T17:05:10;9.17;;;5.63;;
77722;SDS011;67811;42.656;23.394;2023-11-19T17:09:16;10.70;;;5.45;;
77722;SDS011;67811;42.656;23.394;2023-11-19T17:13:21;12.10;;;6.10;;
77722;SDS011;67811;42.656;23.394;2023-11-19T17:17:26;12.43;;;5.53;;
77722;SDS011;67811;42.656;23.394;2023-11-19T17:21:32;10.20;;;4.63;;
77722;SDS011;67811;42.656;23.394;2023-11-19T17:25:37;9.30;;;4.83;;
77722;SDS011;67811;42.656;23.394;2023-11-19T17:29:42;11.03;;;5.33;;
77722;SDS011;67811;42.656;23.394;2023-11-19T17:33:47;7.50;;;4.00;;
77722;SDS011;67811;42.656;23.394;2023-11-19T17:37:53;7.23;;;3.43;;
77722;SDS011;67811;42.656;23.394;2023-11-19T17:41:58;7.97;;;4.33;;
77722;SDS011;67811;42.656;23.394;2023-11-19T17:46:04;13.07;;;6.80;;
77722;SDS011;67811;42.656;23.394;2023-11-19T17:50:10;11.35;;;5.35;;
77722;SDS011;67811;42.656;23.394;2023-11-19T17:54:16;10.85;;;5.43;;
77722;SDS011;67811;42.656;23.394;2023-11-19T17:58:21;5.93;;;3.28;;
77722;SDS011;67811;42.656;23.394;2023-11-19T18:02:27;11.57;;;5.00;;
77722;SDS011;67811;42.656;23.394;2023-11-19T18:06:32;9.03;;;4.97;;
77722;SDS011;67811;42.656;23.394;2023-11-19T18:10:37;5.23;;;3.67;;
77722;SDS011;67811;42.656;23.394;2023-11-19T18:14:43;10.43;;;4.83;;
77722;SDS011;67811;42.656;23.394;2023-11-19T18:18:48;9.07;;;4.30;;
77722;SDS011;67811;42.656;23.394;2023-11-19T18:22:53;11.47;;;5.27;;
77722;SDS011;67811;42.656;23.394;2023-11-19T18:26:59;9.67;;;4.73;;
77722;SDS011;67811;42.656;23.394;2023-11-19T18:31:04;10.83;;;5.33;;
77722;SDS011;67811;42.656;23.394;2023-11-19T18:35:09;8.10;;;4.57;;
77722;SDS011;67811;42.656;23.394;2023-11-19T18:39:15;14.77;;;7.50;;
77722;SDS011;67811;42.656;23.394;2023-11-19T18:43:20;11.07;;;5.47;;
77722;SDS011;67811;42.656;23.394;2023-11-19T18:47:25;9.33;;;4.43;;
77722;SDS011;67811;42.656;23.394;2023-11-19T18:51:31;12.23;;;6.73;;
77722;SDS011;67811;42.656;23.394;2023-11-19T18:55:36;11.13;;;5.53;;
77722;SDS011;67811;42.656;23.394;2023-11-19T18:59:42;8.90;;;4.50;;
77722;SDS011;67811;42.656;23.394;2023-11-19T19:03:47;15.30;;;7.97;;
77722;SDS011;67811;42.656;23.394;2023-11-19T19:07:52;14.83;;;7.33;;
77722;SDS011;67811;42.656;23.394;2023-11-19T19:11:58;12.73;;;6.30;;
77722;SDS011;67811;42.656;23.394;2023-11-19T19:16:06;8.53;;;4.27;;
77722;SDS011;67811;42.656;23.394;2023-11-19T19:20:12;11.25;;;5.45;;
77722;SDS011;67811;42.656;23.394;2023-11-19T19:24:17;14.17;;;6.93;;
77722;SDS011;67811;42.656;23.394;2023-11-19T19:28:23;24.50;;;10.10;;
77722;SDS011;67811;42.656;23.394;2023-11-19T19:32:28;12.80;;;7.13;;
77722;SDS011;67811;42.656;23.394;2023-11-19T19:36:33;15.47;;;8.30;;
77722;SDS011;67811;42.656;23.394;2023-11-19T19:40:39;15.53;;;7.97;;
77722;SDS011;67811;42.656;23.394;2023-11-19T19:44:44;12.00;;;6.77;;
77722;SDS011;67811;42.656;23.394;2023-11-19T19:48:49;15.60;;;7.43;;
77722;SDS011;67811;42.656;23.394;2023-11-19T19:52:54;10.93;;;6.17;;
77722;SDS011;67811;42.656;23.394;2023-11-19T19:57:00;8.47;;;5.47;;
77722;SDS011;67811;42.656;23.394;2023-11-19T20:01:05;19.83;;;9.43;;
77722;SDS011;67811;42.656;23.394;2023-11-19T20:05:10;15.57;;;8.07;;
77722;SDS011;67811;42.656;23.394;2023-11-19T20:09:16;24.50;;;11.73;;
77722;SDS011;67811;42.656;23.394;2023-11-19T20:13:21;16.63;;;7.80;;
77722;SDS011;67811;42.656;23.394;2023-11-19T20:17:27;14.43;;;7.40;;
77722;SDS011;67811;42.656;23.394;2023-11-19T20:21:32;15.70;;;9.63;;
77722;SDS011;67811;42.656;23.394;2023-11-19T20:25:38;23.13;;;9.37;;
77722;SDS011;67811;42.656;23.394;2023-11-19T20:29:46;23.70;;;12.13;;
77722;SDS011;67811;42.656;23.394;2023-11-19T20:33:52;18.60;;;10.88;;
77722;SDS011;67811;42.656;23.394;2023-11-19T20:37:57;17.83;;;9.30;;
77722;SDS011;67811;42.656;23.394;2023-11-19T20:42:02;15.17;;;7.17;;
77722;SDS011;67811;42.656;23.394;2023-11-19T20:46:08;20.40;;;9.43;;
77722;SDS011;67811;42.656;23.394;2023-11-19T20:50:13;16.57;;;8.33;;
77722;SDS011;67811;42.656;23.394;2023-11-19T20:54:18;17.33;;;8.43;;
77722;SDS011;67811;42.656;23.394;2023-11-19T20:58:24;16.47;;;8.53;;
77722;SDS011;67811;42.656;23.394;2023-11-19T21:02:29;19.17;;;9.07;;
77722;SDS011;67811;42.656;23.394;2023-11-19T21:06:34;18.00;;;7.63;;
77722;SDS011;67811;42.656;23.394;2023-11-19T21:10:40;14.97;;;7.60;;
77722;SDS011;67811;42.656;23.394;2023-11-19T21:14:45;14.00;;;7.70;;
77722;SDS011;67811;42.656;23.394;2023-11-19T21:18:51;15.50;;;8.13;;
77722;SDS011;67811;42.656;23.394;2023-11-19T21:22:56;14.67;;;6.87;;
77722;SDS011;67811;42.656;23.394;2023-11-19T21:27:01;14.00;;;7.30;;
77722;SDS011;67811;42.656;23.394;2023-11-19T21:31:07;17.30;;;9.07;;
77722;SDS011;67811;42.656;23.394;2023-11-19T21:35:12;13.90;;;7.50;;
77722;SDS011;67811;42.656;23.394;2023-11-19T21:39:17;16.17;;;8.30;;
77722;SDS011;67811;42.656;23.394;2023-11-19T21:43:23;16.70;;;8.93;;
77722;SDS011;67811;42.656;23.394;2023-11-19T21:47:28;20.33;;;8.57;;
77722;SDS011;67811;42.656;23.394;2023-11-19T21:51:38;15.97;;;8.00;;
77722;SDS011;67811;42.656;23.394;2023-11-19T21:55:44;15.52;;;7.13;;
77722;SDS011;67811;42.656;23.394;2023-11-19T21:59:49;14.90;;;6.73;;
77722;SDS011;67811;42.656;23.394;2023-11-19T22:03:54;18.40;;;8.50;;
77722;SDS011;67811;42.656;23.394;2023-11-19T22:08:00;17.10;;;9.23;;
77722;SDS011;67811;42.656;23.394;2023-11-19T22:12:05;17.53;;;9.57;;
77722;SDS011;67811;42.656;23.394;2023-11-19T22:16:11;20.23;;;10.63;;
77722;SDS011;67811;42.656;23.394;2023-11-19T22:20:16;17.97;;;9.20;;
77722;SDS011;67811;42.656;23.394;2023-11-19T22:24:21;18.20;;;8.97;;
77722;SDS011;67811;42.656;23.394;2023-11-19T22:28:26;13.90;;;7.60;;
77722;SDS011;67811;42.656;23.394;2023-11-19T22:32:32;14.53;;;7.43;;
77722;SDS011;67811;42.656;23.394;2023-11-19T22:36:37;14.60;;;6.93;;
77722;SDS011;67811;42.656;23.394;2023-11-19T22:40:42;16.57;;;8.67;;
77722;SDS011;67811;42.656;23.394;2023-11-19T22:44:48;11.80;;;6.37;;
77722;SDS011;67811;42.656;23.394;2023-11-19T22:48:53;12.50;;;6.47;;
77722;SDS011;67811;42.656;23.394;2023-11-19T22:52:58;13.97;;;7.33;;
77722;SDS011;67811;42.656;23.394;2023-11-19T22:57:03;11.30;;;5.37;;
77722;SDS011;67811;42.656;23.394;2023-11-19T23:01:09;12.57;;;6.80;;
77722;SDS011;67811;42.656;23.394;2023-11-19T23:05:14;13.57;;;5.47;;
77722;SDS011;67811;42.656;23.394;2023-11-19T23:09:19;7.93;;;4.47;;
77722;SDS011;67811;42.656;23.394;2023-11-19T23:13:25;12.57;;;5.60;;
77722;SDS011;67811;42.656;23.394;2023-11-19T23:17:30;5.90;;;3.27;;
77722;SDS011;67811;42.656;23.394;2023-11-19T23:21:35;9.07;;;4.53;;
77722;SDS011;67811;42.656;23.394;2023-11-19T23:25:41;12.02;;;5.57;;
77722;SDS011;67811;42.656;23.394;2023-11-19T23:29:46;9.02;;;5.90;;
77722;SDS011;67811;42.656;23.394;2023-11-19T23:33:52;13.43;;;7.93;;
77722;SDS011;67811;42.656;23.394;2023-11-19T23:37:57;12.20;;;5.90;;
77722;SDS011;67811;42.656;23.394;2023-11-19T23:42:02;8.87;;;4.50;;
77722;SDS011;67811;42.656;23.394;2023-11-19T23:46:08;11.03;;;4.77;;
77722;SDS011;67811;42.656;23.394;2023-11-19T23:50:13;10.07;;;4.53;;
77722;SDS011;67811;42.656;23.394;2023-11-19T23:54:18;9.30;;;4.87;;
77722;SDS011;67811;42.656;23.394;2023-11-19T23:58:24;9.60;;;4.20;;
